Gillisonville, South Carolina
Current Conditions -  °F | °C
As of 8:06 PM on Saturday 25 Oct 2014 (Local Time) from KNBC Reporting Station
Clear Clear  
Wind Chill: 61°   Ceiling: Unl
Heat Index: 61°   Visibility: 10mi
Dew Point: 51°   Wind: 0mph
Humidity: 70%   Direction: NA
Pressure: 29.98"   Gusts: NA
Location:  32.4773°N, 80.9264°W
Report Text: KNBC 260006Z AUTO 00000KT 10SM CLR 16/11 A2998 RMK AO2 LAST T01610106 $
Loading
Personal Weather Stations






























Interactive Weather Map
Tropical Storm Tracking
New forecast layout! Learn more

10-Day Weather Forecast

Advertisements
Track Severe Weather on mobile